createdAt,value
2019-04-21T05:50:29.306Z,88.20
2019-04-21T05:52:53.561Z,81.80
2019-04-21T05:55:36.109Z,56.30
2019-04-21T05:58:03.666Z,55.20
2019-04-21T06:00:54.626Z,54.50
2019-04-21T06:03:09.859Z,58.50
2019-04-21T06:05:47.919Z,57.40
2019-04-21T06:08:09.883Z,57.40
2019-04-21T06:10:42.288Z,55.90
2019-04-21T06:13:14.634Z,54.90
2019-04-21T06:15:47.162Z,54.20
2019-04-21T06:18:20.169Z,54.50
2019-04-21T06:20:46.779Z,54.20
2019-04-21T06:23:11.233Z,54.10
2019-04-21T06:25:55.625Z,52.80
2019-04-21T06:28:25.595Z,53.10
2019-04-21T06:33:20.239Z,53.10
2019-04-21T06:39:01.873Z,52.40
2019-04-21T06:41:27.810Z,52.20
2019-04-21T06:43:56.691Z,50.70
2019-04-21T06:46:25.853Z,50.50
2019-04-21T06:48:56.984Z,45.10
2019-04-21T06:51:27.586Z,40.50
2019-04-21T06:53:59.316Z,40.20
2019-04-21T06:56:30.955Z,40.60
2019-04-21T06:58:55.625Z,39.60
2019-04-21T07:01:34.568Z,39.80
2019-04-21T07:04:05.868Z,39.00
2019-04-21T07:06:32.169Z,38.60
2019-04-21T07:09:12.602Z,38.50
2019-04-21T07:11:28.749Z,38.70
2019-04-21T07:14:13.458Z,37.40
2019-04-21T07:16:32.140Z,36.50
2019-04-21T07:19:07.377Z,35.90
2019-04-21T07:21:34.450Z,34.70
2019-04-21T07:24:06.891Z,33.70
2019-04-21T07:29:12.270Z,31.80
2019-04-21T07:31:40.420Z,32.20
2019-04-21T07:36:46.360Z,39.10
2019-04-21T07:39:08.740Z,40.00
2019-04-21T07:41:34.015Z,41.40
2019-04-21T07:44:00.261Z,37.70
2019-04-21T07:46:29.070Z,32.70
2019-04-21T07:49:39.660Z,31.80
2019-04-21T07:52:49.284Z,32.80
2019-04-21T07:57:37.570Z,36.20
2019-04-21T08:02:51.082Z,37.80
2019-04-21T08:05:24.866Z,39.00
2019-04-21T08:10:24.309Z,41.60
2019-04-21T08:12:47.288Z,41.50
2019-04-21T08:15:27.542Z,43.80
2019-04-21T08:17:57.174Z,41.80
2019-04-21T08:20:24.078Z,30.00
2019-04-21T08:22:59.549Z,30.50
2019-04-21T08:25:30.830Z,30.70
2019-04-21T08:27:59.802Z,31.40
2019-04-21T08:30:34.478Z,31.90
2019-04-21T08:33:09.215Z,32.50
2019-04-21T08:38:02.090Z,33.80
2019-04-21T08:40:36.798Z,34.40
2019-04-21T08:43:01.143Z,33.40
2019-04-21T08:45:35.741Z,34.10
2019-04-21T08:48:04.663Z,35.10
2019-04-21T08:50:44.230Z,35.80
2019-04-21T08:53:08.061Z,35.40
2019-04-21T08:56:13.575Z,35.80
2019-04-21T08:58:56.184Z,36.00
2019-04-21T09:01:38.252Z,38.10
2019-04-21T09:04:07.614Z,38.10
2019-04-21T09:06:54.123Z,38.60
2019-04-21T09:09:11.873Z,39.00
2019-04-21T09:11:40.527Z,39.40
2019-04-21T09:14:13.716Z,39.40
2019-04-21T09:16:36.659Z,39.30
2019-04-21T09:19:07.084Z,39.60
2019-04-21T09:21:43.689Z,39.90
2019-04-21T09:24:13.305Z,39.70
2019-04-21T09:26:43.467Z,40.10
2019-04-21T09:29:05.891Z,39.70
2019-04-21T09:31:33.832Z,39.80
2019-04-21T09:34:00.477Z,39.60
2019-04-21T09:36:35.056Z,40.00
2019-04-21T09:39:06.633Z,40.60
2019-04-21T09:41:29.752Z,41.10
2019-04-21T09:44:01.232Z,40.20
2019-04-21T09:46:35.447Z,40.90
2019-04-21T09:49:05.515Z,41.60
2019-04-21T09:51:32.517Z,41.70
2019-04-21T09:54:08.271Z,41.20
2019-04-21T09:56:41.530Z,41.20
2019-04-21T09:59:10.123Z,45.20
2019-04-21T10:01:50.034Z,46.50
2019-04-21T10:04:05.819Z,46.70
2019-04-21T10:06:35.035Z,38.70
2019-04-21T10:09:09.537Z,37.20
2019-04-21T10:11:37.613Z,36.70
2019-04-21T10:14:07.429Z,36.00
2019-04-21T10:16:59.976Z,34.60
2019-04-21T10:19:29.762Z,34.10
2019-04-21T10:22:00.424Z,35.00
2019-04-21T10:24:30.569Z,36.60
2019-04-21T10:27:01.684Z,37.60
2019-04-21T10:29:32.988Z,37.90
2019-04-21T10:32:01.551Z,37.60
2019-04-21T10:34:31.472Z,36.80
2019-04-21T10:37:04.887Z,36.90
2019-04-21T10:39:33.931Z,37.70
2019-04-21T10:42:03.538Z,40.10
2019-04-21T10:44:32.579Z,41.40
2019-04-21T10:47:02.598Z,40.40
2019-04-21T10:49:32.661Z,42.40
2019-04-21T10:52:05.044Z,42.60
2019-04-21T10:54:49.120Z,44.10
2019-04-21T10:57:08.520Z,44.20
2019-04-21T10:59:37.542Z,45.00
2019-04-21T11:02:10.634Z,45.50
2019-04-21T11:04:40.581Z,46.50
2019-04-21T11:07:34.418Z,46.80
2019-04-21T11:10:02.363Z,47.40
2019-04-21T11:12:36.486Z,47.60
2019-04-21T11:15:05.354Z,33.40
2019-04-21T11:17:34.373Z,33.70
2019-04-21T11:20:04.633Z,32.00
2019-04-21T11:22:35.251Z,32.10
2019-04-21T11:25:04.926Z,32.60
2019-04-21T11:27:35.049Z,32.60
2019-04-21T11:30:05.380Z,32.40
2019-04-21T11:32:35.067Z,31.00
2019-04-21T11:35:05.296Z,30.00
2019-04-21T11:37:34.815Z,30.60
2019-04-21T11:40:09.193Z,30.70
2019-04-21T11:42:37.816Z,31.20
2019-04-21T11:45:08.372Z,30.30
2019-04-21T11:47:45.969Z,28.10
2019-04-21T11:50:21.158Z,28.60
2019-04-21T11:52:50.102Z,29.30
2019-04-21T11:55:18.955Z,29.30
2019-04-21T11:57:49.803Z,30.00
2019-04-21T12:00:19.828Z,30.10
2019-04-21T12:02:48.922Z,30.00
2019-04-21T12:05:17.800Z,30.20
2019-04-21T12:07:47.170Z,30.10
2019-04-21T12:10:17.573Z,30.00
2019-04-21T12:12:47.523Z,30.50
2019-04-21T12:15:16.784Z,30.50
2019-04-21T12:17:45.933Z,30.80
2019-04-21T12:20:35.521Z,30.00
2019-04-21T12:23:04.698Z,29.60
2019-04-21T12:25:39.012Z,29.50
2019-04-21T12:28:07.948Z,30.00
2019-04-21T12:30:37.770Z,29.80
2019-04-21T12:33:14.029Z,30.00
2019-04-21T12:35:43.910Z,29.70
2019-04-21T12:38:13.162Z,29.50
2019-04-21T12:40:42.355Z,29.70
2019-04-21T12:43:12.523Z,28.80
2019-04-21T12:45:41.985Z,29.20
2019-04-21T12:48:11.059Z,29.60
2019-04-21T12:50:39.823Z,29.40
2019-04-21T12:53:09.534Z,28.90
2019-04-21T12:55:42.791Z,28.90
2019-04-21T12:58:10.937Z,28.70
2019-04-21T13:00:40.926Z,28.80
2019-04-21T13:03:09.899Z,28.90
2019-04-21T13:05:39.984Z,29.50
2019-04-21T13:08:09.238Z,28.90
2019-04-21T13:10:38.245Z,29.10
2019-04-21T13:13:08.091Z,29.20
2019-04-21T13:15:37.597Z,28.90
2019-04-21T13:18:06.511Z,29.00
2019-04-21T13:20:35.956Z,28.70
2019-04-21T13:23:05.957Z,29.30
2019-04-21T13:25:36.005Z,28.40
2019-04-21T13:28:05.074Z,29.40
2019-04-21T13:30:33.953Z,28.60
2019-04-21T13:33:03.040Z,28.40
2019-04-21T13:35:33.139Z,28.50
2019-04-21T13:38:02.675Z,28.30
2019-04-21T13:41:03.886Z,28.30
2019-04-21T13:43:17.028Z,28.70
2019-04-21T13:45:46.151Z,28.90
2019-04-21T13:48:16.642Z,28.40
2019-04-21T13:50:46.939Z,28.60
2019-04-21T13:53:16.647Z,28.50
2019-04-21T13:55:46.714Z,28.50
2019-04-21T13:58:16.769Z,28.70
2019-04-21T14:00:45.776Z,28.80
2019-04-21T14:03:14.675Z,28.60
2019-04-21T14:05:44.526Z,28.60
2019-04-21T14:08:13.560Z,28.80
2019-04-21T14:10:43.818Z,29.20
2019-04-21T14:13:14.354Z,28.60
2019-04-21T14:15:45.336Z,28.60
2019-04-21T14:18:14.994Z,28.80
2019-04-21T14:20:44.972Z,28.70
2019-04-21T14:23:23.205Z,28.90
2019-04-21T14:25:45.803Z,29.00
2019-04-21T14:28:15.643Z,29.00
2019-04-21T14:30:44.544Z,29.00
2019-04-21T14:33:14.205Z,29.50
2019-04-21T14:35:43.159Z,29.20
2019-04-21T14:38:11.938Z,29.30
2019-04-21T14:40:41.754Z,29.00
2019-04-21T14:43:12.012Z,29.90
2019-04-21T14:45:45.968Z,29.10
2019-04-21T14:48:32.915Z,29.00
2019-04-21T14:51:27.367Z,29.30
2019-04-21T14:54:14.037Z,29.30
2019-04-21T14:56:44.908Z,29.10
2019-04-21T14:59:15.027Z,29.30
2019-04-21T15:01:44.213Z,29.40
2019-04-21T15:04:16.882Z,29.70
2019-04-21T15:06:43.744Z,29.40
2019-04-21T15:09:13.359Z,29.80
2019-04-21T15:11:42.407Z,29.90
2019-04-21T15:14:11.684Z,29.80
2019-04-21T15:16:40.891Z,29.60
2019-04-21T15:19:10.787Z,29.20
2019-04-21T15:21:40.498Z,29.40
2019-04-21T15:24:09.577Z,29.00
2019-04-21T15:26:40.036Z,29.40
2019-04-21T15:29:09.092Z,29.40
2019-04-21T15:31:41.685Z,29.50
2019-04-21T15:34:08.800Z,29.60
2019-04-21T15:36:37.920Z,29.60
2019-04-21T15:39:08.229Z,29.60
2019-04-21T15:41:38.482Z,29.10
2019-04-21T15:44:08.294Z,29.80
2019-04-21T15:46:39.753Z,29.30
2019-04-21T15:49:09.200Z,29.10
2019-04-21T15:51:38.189Z,29.30
2019-04-21T15:54:07.260Z,29.60
2019-04-21T15:57:04.945Z,29.50
2019-04-21T16:00:00.344Z,29.80
2019-04-21T16:02:40.372Z,29.30
2019-04-21T16:05:10.855Z,29.90
2019-04-21T16:07:40.318Z,29.80
2019-04-21T16:10:11.934Z,29.80
2019-04-21T16:12:40.781Z,29.50
2019-04-21T16:15:10.510Z,29.70
2019-04-21T16:17:39.544Z,29.70
2019-04-21T16:20:12.118Z,29.80
2019-04-21T16:22:42.293Z,29.40
2019-04-21T16:25:12.870Z,29.60
2019-04-21T16:27:43.414Z,29.80
2019-04-21T16:30:13.297Z,30.30
2019-04-21T16:32:42.205Z,29.80
2019-04-21T16:35:14.368Z,30.10
2019-04-21T16:37:43.659Z,30.00
2019-04-21T16:40:14.190Z,30.00
2019-04-21T16:42:43.135Z,29.80
2019-04-21T16:45:16.823Z,30.40
2019-04-21T16:47:49.066Z,29.80
2019-04-21T16:50:17.578Z,30.50
2019-04-21T16:52:52.143Z,30.00
2019-04-21T16:55:35.412Z,30.30
2019-04-21T16:58:26.614Z,30.00
2019-04-21T17:01:04.555Z,30.00
2019-04-21T17:03:30.620Z,30.30
2019-04-21T17:06:00.499Z,30.10
2019-04-21T17:08:31.724Z,30.30
2019-04-21T17:11:10.853Z,30.00
2019-04-21T17:13:32.143Z,30.10
2019-04-21T17:16:33.070Z,30.20
2019-04-21T17:18:47.622Z,30.10
2019-04-21T17:21:05.005Z,30.40
2019-04-21T17:23:35.508Z,30.40
2019-04-21T17:26:05.405Z,30.10
2019-04-21T17:28:34.441Z,30.10
2019-04-21T17:31:08.546Z,30.20
2019-04-21T17:33:37.665Z,31.10
2019-04-21T17:36:09.110Z,30.60
2019-04-21T17:38:39.647Z,31.10
2019-04-21T17:41:21.615Z,30.50
2019-04-21T17:43:49.921Z,30.90
2019-04-21T17:46:26.202Z,31.40
2019-04-21T17:48:50.598Z,31.90
2019-04-21T17:51:40.623Z,31.80
2019-04-21T17:54:35.828Z,32.00
2019-04-21T17:57:21.486Z,32.50
2019-04-21T17:59:56.859Z,32.80
2019-04-21T18:02:24.846Z,32.90
2019-04-21T18:04:58.895Z,33.20
2019-04-21T18:07:31.590Z,33.50
2019-04-21T18:10:11.510Z,34.00
2019-04-21T18:12:28.832Z,34.20
2019-04-21T18:14:56.268Z,34.30
2019-04-21T18:17:18.472Z,34.60
2019-04-21T18:19:51.323Z,34.90
2019-04-21T18:22:38.587Z,35.00
2019-04-21T18:25:10.633Z,35.00
2019-04-21T18:27:36.767Z,35.60
2019-04-21T18:30:30.844Z,35.50
2019-04-21T18:33:04.688Z,35.80
2019-04-21T18:35:54.340Z,35.90
2019-04-21T18:38:45.140Z,36.10
2019-04-21T18:41:01.451Z,36.40
2019-04-21T18:43:55.810Z,36.50
2019-04-21T18:46:31.541Z,36.50
2019-04-21T18:49:01.472Z,36.50
2019-04-21T18:51:57.161Z,36.80
2019-04-21T18:54:47.122Z,37.00
2019-04-21T18:57:08.261Z,37.20
2019-04-21T18:59:34.540Z,37.30
2019-04-21T19:02:06.246Z,37.20
2019-04-21T19:04:33.908Z,37.50
2019-04-21T19:07:17.311Z,37.60
2019-04-21T19:10:11.397Z,37.40
2019-04-21T19:12:31.920Z,37.70
2019-04-21T19:14:51.000Z,37.90
2019-04-21T19:20:08.865Z,38.10
2019-04-21T19:22:28.875Z,38.00
2019-04-21T19:24:59.452Z,38.20
2019-04-21T19:27:28.099Z,38.10
2019-04-21T19:30:05.693Z,38.20
2019-04-21T19:32:29.029Z,38.30
2019-04-21T19:34:45.319Z,38.30
2019-04-21T19:37:17.353Z,38.60
2019-04-21T19:39:57.750Z,38.80
2019-04-21T19:42:25.663Z,38.80
2019-04-21T19:44:59.232Z,38.90
2019-04-21T19:47:34.930Z,38.90
2019-04-21T19:50:12.011Z,38.70
2019-04-21T19:52:49.727Z,39.20
2019-04-21T19:59:01.348Z,39.60
2019-04-21T20:01:58.468Z,39.30
2019-04-21T20:04:44.011Z,39.80
2019-04-21T20:07:34.270Z,39.80
2019-04-21T20:13:14.518Z,40.90
2019-04-21T20:15:52.036Z,40.70
2019-04-21T20:18:13.982Z,40.80
2019-04-21T20:20:56.377Z,41.00
2019-04-21T20:23:32.759Z,41.10
2019-04-21T20:26:23.128Z,40.90
2019-04-21T20:29:34.110Z,40.60
2019-04-21T20:32:28.013Z,40.40
2019-04-21T20:35:07.052Z,40.90
2019-04-21T20:38:09.338Z,40.40
2019-04-21T20:40:45.823Z,41.20
2019-04-21T20:43:41.805Z,41.10
2019-04-21T20:46:12.512Z,41.50
2019-04-21T20:48:52.437Z,41.20
2019-04-21T20:51:29.963Z,41.30
2019-04-21T20:54:00.524Z,41.60
2019-04-21T20:56:57.574Z,41.60
2019-04-21T20:59:25.040Z,41.90
2019-04-21T21:02:05.656Z,42.30
2019-04-21T21:04:40.275Z,42.30
2019-04-21T21:08:14.910Z,41.90
2019-04-21T21:11:08.292Z,42.10
2019-04-21T21:14:28.076Z,42.40
2019-04-21T21:18:01.035Z,42.20
2019-04-21T21:20:24.841Z,42.50
2019-04-21T21:23:11.573Z,42.30
2019-04-21T21:28:54.153Z,43.10
2019-04-21T21:38:55.660Z,43.50
2019-04-21T21:41:45.174Z,43.90
2019-04-21T21:44:53.336Z,44.10
2019-04-21T21:47:24.135Z,44.10
2019-04-21T21:50:29.864Z,44.40
2019-04-21T21:53:16.444Z,44.30
2019-04-21T21:55:44.970Z,44.40
2019-04-21T22:09:06.231Z,44.10
2019-04-21T22:11:42.192Z,44.40
2019-04-21T22:14:44.679Z,44.70
2019-04-21T22:17:29.011Z,44.70
2019-04-21T22:20:33.401Z,44.60
2019-04-21T22:22:58.367Z,44.90
2019-04-21T22:25:29.588Z,44.80
2019-04-21T22:27:57.776Z,44.90
2019-04-21T22:30:38.168Z,45.30
2019-04-21T22:33:11.889Z,44.80
2019-04-21T22:35:46.282Z,45.50
2019-04-21T22:38:29.612Z,45.90
2019-04-21T22:40:59.050Z,45.70
2019-04-21T22:43:36.648Z,45.80
2019-04-21T22:46:01.223Z,46.00
2019-04-21T22:48:34.596Z,46.00
2019-04-21T22:51:08.851Z,46.00
2019-04-21T22:53:44.549Z,46.20
2019-04-21T22:56:19.791Z,46.60
2019-04-21T22:58:46.529Z,46.40
2019-04-21T23:01:24.130Z,46.40
2019-04-21T23:03:55.314Z,46.90
2019-04-21T23:06:35.650Z,46.80
2019-04-21T23:09:19.161Z,47.20
2019-04-21T23:11:59.544Z,47.50
2019-04-21T23:14:24.009Z,47.20
2019-04-21T23:17:14.869Z,47.60
2019-04-21T23:19:44.890Z,47.80
2019-04-21T23:22:17.316Z,47.90
2019-04-21T23:24:53.109Z,48.00
2019-04-21T23:27:14.128Z,48.40
2019-04-21T23:29:59.803Z,48.20
2019-04-21T23:32:25.934Z,48.30
2019-04-21T23:34:43.442Z,48.20
2019-04-21T23:37:19.542Z,48.30
2019-04-21T23:39:45.493Z,48.60
2019-04-21T23:42:23.702Z,48.80
2019-04-21T23:44:55.153Z,48.70
2019-04-21T23:47:37.375Z,48.80
2019-04-21T23:50:05.582Z,48.70
2019-04-21T23:52:29.880Z,48.40
2019-04-21T23:55:00.989Z,48.40
2019-04-21T23:57:37.931Z,48.30
